Time;durP1;ratioP1;P1;durP2;ratioP2;P2;SDS_P1;SDS_P2;PMS_P1;PMS_P2;Temp;Humidity;BMP_temperature;BMP_pressure;BME280_temperature;BME280_humidity;BME280_pressure;Samples;Min_cycle;Max_cycle;Signal;HPM_P1;HPM_P2
2023/09/22 00:00:10;;;;;;;4.38;1.40;;;19.00;90.80;;;;;;6064128;23;20177;-84
2023/09/22 00:02:37;;;;;;;2.30;1.00;;;19.00;90.30;;;;;;6064545;23;20162;-84
2023/09/22 00:05:06;;;;;;;1.88;1.10;;;19.10;85.50;;;;;;6063361;23;20182;-84
2023/09/22 00:07:38;;;;;;;2.90;0.80;;;19.00;83.20;;;;;;6066514;23;20193;-84
2023/09/22 00:10:06;;;;;;;2.33;0.90;;;18.80;80.00;;;;;;6065344;23;20189;-84
2023/09/22 00:12:33;;;;;;;0.93;0.93;;;18.80;80.00;;;;;;6065318;23;20184;-84
2023/09/22 00:15:04;;;;;;;2.55;1.10;;;18.70;80.10;;;;;;6065179;23;20173;-84
2023/09/22 00:17:35;;;;;;;2.13;1.00;;;18.50;79.80;;;;;;6066962;23;20181;-84
2023/09/22 00:20:01;;;;;;;0.63;0.63;;;18.40;79.70;;;;;;6066430;23;20236;-84
2023/09/22 00:22:31;;;;;;;1.10;1.00;;;18.30;79.60;;;;;;6066370;23;20179;-84
2023/09/22 00:24:59;;;;;;;1.02;0.70;;;18.20;81.80;;;;;;6041060;23;20261;-84
2023/09/22 00:27:26;;;;;;;1.02;0.95;;;18.20;82.30;;;;;;6066138;23;20860;-84
2023/09/22 00:29:53;;;;;;;0.70;0.70;;;18.10;79.50;;;;;;6065186;23;20208;-84
2023/09/22 00:32:20;;;;;;;0.70;0.70;;;18.10;78.70;;;;;;6064406;23;20642;-84
2023/09/22 00:34:46;;;;;;;4.20;0.80;;;18.00;78.70;;;;;;6064156;23;20204;-84
2023/09/22 00:37:13;;;;;;;1.15;0.80;;;17.90;79.30;;;;;;6067041;23;20181;-84
2023/09/22 00:39:40;;;;;;;0.60;0.60;;;17.90;76.90;;;;;;6066295;23;20236;-84
2023/09/22 00:42:09;;;;;;;0.77;0.77;;;17.90;75.20;;;;;;6066792;23;20201;-85
2023/09/22 00:44:36;;;;;;;1.75;0.60;;;17.90;72.60;;;;;;6065980;23;20252;-84
2023/09/22 00:47:07;;;;;;;0.77;0.77;;;17.80;72.00;;;;;;6066439;23;20174;-84
2023/09/22 00:49:36;;;;;;;0.85;0.73;;;17.90;73.30;;;;;;6067286;23;20228;-84
2023/09/22 00:52:03;;;;;;;0.65;0.65;;;17.80;72.60;;;;;;6066905;23;20197;-84
2023/09/22 00:54:31;;;;;;;0.60;0.60;;;17.90;69.10;;;;;;6066861;23;20173;-84
2023/09/22 00:56:58;;;;;;;0.80;0.40;;;17.90;68.90;;;;;;6067093;23;20180;-84
2023/09/22 00:59:27;;;;;;;0.50;0.50;;;17.80;71.10;;;;;;6041624;23;20176;-84
2023/09/22 01:01:55;;;;;;;1.48;0.70;;;17.80;73.40;;;;;;6067670;23;20182;-84
2023/09/22 01:04:22;;;;;;;1.08;0.93;;;17.70;73.00;;;;;;6065861;23;20184;-84
2023/09/22 01:06:49;;;;;;;2.88;0.70;;;17.70;71.30;;;;;;6067438;23;20182;-84
2023/09/22 01:09:16;;;;;;;0.85;0.75;;;17.70;75.00;;;;;;6042050;23;20228;-84
2023/09/22 01:11:46;;;;;;;0.98;0.95;;;17.60;75.80;;;;;;6065666;23;20177;-84
2023/09/22 01:14:13;;;;;;;0.65;0.65;;;17.60;74.30;;;;;;6065103;23;20184;-84
2023/09/22 01:16:42;;;;;;;0.65;0.65;;;17.60;74.10;;;;;;6067011;23;20174;-84
2023/09/22 01:19:14;;;;;;;0.60;0.60;;;17.50;75.30;;;;;;6035573;23;20237;-84
2023/09/22 01:21:42;;;;;;;0.82;0.82;;;17.50;76.40;;;;;;6037634;23;20170;-84
2023/09/22 01:24:10;;;;;;;1.15;0.70;;;17.50;74.70;;;;;;6037337;23;20636;-84
2023/09/22 01:26:38;;;;;;;1.05;1.02;;;17.50;75.90;;;;;;6037859;23;20630;-84
2023/09/22 01:29:08;;;;;;;1.38;0.82;;;17.60;73.30;;;;;;6037200;23;20725;-84
2023/09/22 01:31:35;;;;;;;2.30;0.85;;;17.60;74.10;;;;;;6037631;23;20177;-84
2023/09/22 01:34:08;;;;;;;1.15;1.08;;;17.40;77.00;;;;;;6037526;23;20188;-84
2023/09/22 01:36:34;;;;;;;1.20;1.05;;;17.40;76.40;;;;;;6037518;23;20184;-84
2023/09/22 01:39:05;;;;;;;1.40;0.70;;;17.40;79.00;;;;;;6038427;23;20182;-84
2023/09/22 01:41:36;;;;;;;0.73;0.70;;;17.30;78.90;;;;;;6038038;23;20610;-84
2023/09/22 01:44:03;;;;;;;0.95;0.75;;;17.30;78.90;;;;;;6037350;23;20178;-84
2023/09/22 01:46:30;;;;;;;0.90;0.90;;;17.20;78.80;;;;;;6035934;23;20180;-84
2023/09/22 01:48:57;;;;;;;1.38;1.02;;;17.10;79.70;;;;;;6037760;23;20947;-84
2023/09/22 01:51:24;;;;;;;0.85;0.85;;;17.10;80.60;;;;;;6037681;23;20205;-84
2023/09/22 01:53:51;;;;;;;0.80;0.80;;;17.20;78.80;;;;;;6037053;23;20906;-84
2023/09/22 01:56:21;;;;;;;1.00;0.90;;;17.30;79.80;;;;;;6035570;23;20185;-84
2023/09/22 01:58:49;;;;;;;1.83;0.65;;;17.40;79.00;;;;;;6037691;23;20629;-84
2023/09/22 02:01:17;;;;;;;0.80;0.80;;;17.30;82.40;;;;;;6037318;23;20496;-84
2023/09/22 02:03:44;;;;;;;0.77;0.77;;;17.20;83.10;;;;;;6037401;23;20202;-84
2023/09/22 02:06:11;;;;;;;0.98;0.90;;;17.20;83.20;;;;;;6035192;23;20721;-84
2023/09/22 02:08:39;;;;;;;0.73;0.73;;;17.20;83.40;;;;;;6038301;23;20575;-84
2023/09/22 02:11:06;;;;;;;0.70;0.70;;;17.10;84.70;;;;;;6036912;23;20261;-84
2023/09/22 02:13:34;;;;;;;0.77;0.60;;;17.00;84.40;;;;;;6036067;23;20174;-84
2023/09/22 02:16:03;;;;;;;0.95;0.70;;;17.20;83.30;;;;;;6037638;23;20174;-84
2023/09/22 02:18:30;;;;;;;1.10;1.00;;;17.20;83.10;;;;;;6045203;23;20241;-84
2023/09/22 02:20:57;;;;;;;0.70;0.70;;;17.20;83.20;;;;;;6065370;23;20184;-84
2023/09/22 02:23:27;;;;;;;1.42;0.82;;;17.20;83.50;;;;;;6065141;23;20177;-84
2023/09/22 02:25:54;;;;;;;3.50;0.80;;;17.20;84.90;;;;;;6041605;23;20165;-84
2023/09/22 02:28:21;;;;;;;1.67;0.70;;;17.10;85.80;;;;;;6065987;23;20208;-84
2023/09/22 02:30:49;;;;;;;0.80;0.80;;;17.10;84.50;;;;;;6066585;23;20181;-84
2023/09/22 02:33:16;;;;;;;0.98;0.70;;;17.10;85.70;;;;;;6065684;23;20663;-84
2023/09/22 02:35:43;;;;;;;0.70;0.70;;;17.10;84.00;;;;;;6064594;23;20205;-84
2023/09/22 02:38:10;;;;;;;1.13;1.02;;;17.10;83.80;;;;;;6066231;23;20177;-84
2023/09/22 02:40:37;;;;;;;0.85;0.80;;;17.00;87.00;;;;;;6066831;23;20177;-84
2023/09/22 02:43:06;;;;;;;5.28;0.70;;;16.90;88.10;;;;;;6066378;23;20277;-83
2023/09/22 02:45:37;;;;;;;0.70;0.70;;;16.80;90.20;;;;;;6063929;23;20211;-84
2023/09/22 02:48:06;;;;;;;2.05;1.08;;;16.90;90.20;;;;;;6066319;23;20168;-84
2023/09/22 02:50:33;;;;;;;0.90;0.90;;;16.90;90.30;;;;;;6066805;23;20193;-84
2023/09/22 02:53:03;;;;;;;1.13;1.00;;;17.00;88.00;;;;;;6064548;23;20621;-84
2023/09/22 02:55:30;;;;;;;0.80;0.80;;;17.00;90.10;;;;;;6041902;23;20180;-84
2023/09/22 02:57:57;;;;;;;1.23;1.13;;;17.00;87.70;;;;;;6065675;23;20181;-84
2023/09/22 03:00:24;;;;;;;2.60;0.80;;;17.00;88.20;;;;;;6066570;23;20624;-84
2023/09/22 03:02:52;;;;;;;2.40;1.20;;;16.90;90.10;;;;;;6065453;23;20173;-84
2023/09/22 03:05:21;;;;;;;1.60;0.88;;;16.80;90.70;;;;;;6065786;23;20230;-84
2023/09/22 03:07:49;;;;;;;1.33;1.10;;;16.70;90.90;;;;;;6065126;23;20177;-84
2023/09/22 03:10:16;;;;;;;1.08;0.90;;;16.70;91.40;;;;;;6066387;23;20201;-84
2023/09/22 03:12:44;;;;;;;1.10;1.00;;;16.70;91.00;;;;;;6064888;23;20298;-84
2023/09/22 03:15:12;;;;;;;1.08;1.00;;;16.70;90.80;;;;;;6066055;23;20181;-84
2023/09/22 03:17:39;;;;;;;0.80;0.80;;;16.60;91.80;;;;;;6017819;23;20241;-84
2023/09/22 03:20:11;;;;;;;1.00;0.88;;;16.60;91.80;;;;;;6035560;23;20194;-84
2023/09/22 03:22:39;;;;;;;1.05;0.95;;;16.60;91.80;;;;;;6036616;23;20186;-83
2023/09/22 03:25:08;;;;;;;1.05;0.95;;;16.60;91.30;;;;;;6036704;23;20268;-84
2023/09/22 03:27:35;;;;;;;1.25;1.00;;;16.60;90.60;;;;;;6037350;23;20257;-84
2023/09/22 03:30:02;;;;;;;0.82;0.82;;;16.60;90.10;;;;;;6037623;23;20209;-84
2023/09/22 03:32:29;;;;;;;1.20;1.00;;;16.60;90.30;;;;;;6035470;23;20504;-83
2023/09/22 03:34:57;;;;;;;0.80;0.80;;;16.60;90.50;;;;;;6035137;23;20181;-84
2023/09/22 03:37:27;;;;;;;1.00;0.90;;;16.60;90.90;;;;;;6037055;23;20174;-84
2023/09/22 03:39:55;;;;;;;1.20;1.10;;;16.50;91.80;;;;;;6034952;23;20621;-84
2023/09/22 03:42:22;;;;;;;2.53;0.90;;;16.50;91.30;;;;;;6035869;23;20177;-83
2023/09/22 03:44:49;;;;;;;0.80;0.80;;;16.50;91.80;;;;;;6029406;23;20184;-83
2023/09/22 03:47:16;;;;;;;1.20;1.10;;;16.40;91.80;;;;;;6037162;23;20622;-84
2023/09/22 03:49:43;;;;;;;0.85;0.85;;;16.40;92.90;;;;;;6036760;23;20197;-84
2023/09/22 03:52:10;;;;;;;1.00;0.90;;;16.30;93.40;;;;;;6037290;23;20197;-84
2023/09/22 03:54:37;;;;;;;1.60;1.05;;;16.20;93.50;;;;;;6035967;23;20186;-84
2023/09/22 03:57:06;;;;;;;0.80;0.80;;;16.20;94.20;;;;;;6037277;23;20174;-84
2023/09/22 03:59:33;;;;;;;1.10;1.00;;;16.00;94.60;;;;;;6036753;23;20182;-83
2023/09/22 04:02:00;;;;;;;0.93;0.93;;;16.00;94.80;;;;;;6036640;23;20188;-84
2023/09/22 04:04:29;;;;;;;1.75;1.05;;;15.90;95.30;;;;;;6027810;23;20182;-84
2023/09/22 04:06:56;;;;;;;0.85;0.82;;;15.80;96.40;;;;;;6037342;23;20174;-83
2023/09/22 04:09:22;;;;;;;1.02;1.00;;;15.60;97.00;;;;;;6036086;23;20194;-84
2023/09/22 04:11:49;;;;;;;0.90;0.90;;;15.60;97.90;;;;;;6036074;23;20181;-84
2023/09/22 04:14:17;;;;;;;0.93;0.82;;;15.60;98.00;;;;;;6036132;23;20558;-83
2023/09/22 04:16:44;;;;;;;1.83;0.95;;;15.50;98.20;;;;;;6037222;23;20181;-84
2023/09/22 04:19:11;;;;;;;2.35;0.90;;;15.60;98.10;;;;;;6053594;23;20276;-84
2023/09/22 04:21:42;;;;;;;1.48;0.90;;;15.60;98.50;;;;;;6066399;23;20561;-84
2023/09/22 04:24:11;;;;;;;1.13;0.88;;;15.50;99.10;;;;;;6041242;23;20613;-83
2023/09/22 04:26:42;;;;;;;0.70;0.70;;;15.50;98.80;;;;;;6041537;23;20192;-83
2023/09/22 04:29:09;;;;;;;1.45;1.20;;;15.40;99.60;;;;;;6065960;23;20708;-84
2023/09/22 04:31:38;;;;;;;1.38;1.00;;;15.30;99.90;;;;;;6064222;23;20181;-83
2023/09/22 04:34:05;;;;;;;1.15;1.10;;;15.30;99.90;;;;;;6039881;23;20178;-83
2023/09/22 04:36:32;;;;;;;0.98;0.80;;;15.40;99.90;;;;;;6060218;23;20185;-84
2023/09/22 04:39:00;;;;;;;2.47;1.40;;;15.40;99.60;;;;;;6065799;23;20177;-83
2023/09/22 04:41:26;;;;;;;0.90;0.90;;;15.40;99.90;;;;;;6065186;23;20192;-83
2023/09/22 04:43:54;;;;;;;1.75;1.30;;;15.30;99.90;;;;;;6064529;23;20186;-84
2023/09/22 04:46:21;;;;;;;1.00;0.90;;;15.30;99.90;;;;;;6065265;23;20181;-83
2023/09/22 04:48:49;;;;;;;1.40;0.93;;;15.20;99.90;;;;;;6066358;23;20231;-83
2023/09/22 04:51:16;;;;;;;1.35;1.10;;;15.20;99.90;;;;;;6066068;23;20201;-84
2023/09/22 04:53:43;;;;;;;0.82;0.82;;;15.10;99.90;;;;;;6041780;23;20177;-86
2023/09/22 04:56:09;;;;;;;1.50;1.20;;;15.10;99.90;;;;;;6066066;23;20169;-84
2023/09/22 04:58:38;;;;;;;1.33;0.93;;;15.20;99.90;;;;;;6041884;23;20173;-85
2023/09/22 05:01:05;;;;;;;1.20;1.10;;;15.10;99.90;;;;;;6067245;23;20241;-86
2023/09/22 05:03:32;;;;;;;1.08;0.88;;;15.00;99.90;;;;;;6065726;23;20628;-86
2023/09/22 05:06:06;;;;;;;1.20;1.10;;;15.10;99.90;;;;;;6066755;23;20514;-84
2023/09/22 05:08:33;;;;;;;1.48;1.10;;;15.00;99.90;;;;;;6041680;23;20257;-84
2023/09/22 05:11:03;;;;;;;2.17;1.20;;;15.00;99.90;;;;;;6066516;23;20173;-83
2023/09/22 05:13:30;;;;;;;2.30;1.10;;;15.00;99.90;;;;;;6067104;23;20178;-83
2023/09/22 05:16:06;;;;;;;2.28;1.35;;;14.90;99.90;;;;;;6066409;23;20215;-84
2023/09/22 05:18:33;;;;;;;1.40;1.10;;;14.90;99.90;;;;;;6067039;23;20180;-85
2023/09/22 05:21:00;;;;;;;1.60;1.00;;;14.80;99.90;;;;;;6042790;23;20560;-85
2023/09/22 05:23:29;;;;;;;1.13;0.93;;;14.90;99.90;;;;;;6067466;23;20181;-85
2023/09/22 05:25:57;;;;;;;3.53;1.13;;;14.90;99.90;;;;;;6066269;23;20251;-85
2023/09/22 05:28:23;;;;;;;1.60;1.00;;;14.80;99.90;;;;;;6067663;23;20177;-84
2023/09/22 05:30:50;;;;;;;1.60;1.23;;;14.80;99.90;;;;;;6067336;23;20207;-84
2023/09/22 05:33:17;;;;;;;3.70;1.30;;;14.80;99.90;;;;;;6067262;23;20185;-83
2023/09/22 05:35:44;;;;;;;1.30;1.20;;;14.80;99.90;;;;;;6017922;23;20178;-84
2023/09/22 05:38:11;;;;;;;3.30;1.40;;;14.80;99.90;;;;;;6066387;23;20692;-83
2023/09/22 05:40:40;;;;;;;1.35;1.02;;;14.80;99.90;;;;;;6065595;23;20188;-83
2023/09/22 05:43:08;;;;;;;1.60;1.30;;;14.80;99.90;;;;;;6064649;23;20182;-83
2023/09/22 05:45:35;;;;;;;3.03;1.40;;;14.80;99.90;;;;;;6066838;23;20229;-84
2023/09/22 05:48:02;;;;;;;1.20;1.10;;;14.80;99.90;;;;;;6066770;23;20478;-83
2023/09/22 05:50:29;;;;;;;1.52;1.23;;;14.80;99.90;;;;;;6067087;23;20203;-82
2023/09/22 05:52:56;;;;;;;1.10;1.00;;;14.80;99.90;;;;;;6041392;23;20177;-83
2023/09/22 05:55:23;;;;;;;2.10;1.50;;;15.00;99.90;;;;;;6066630;23;20639;-84
2023/09/22 05:57:51;;;;;;;1.40;1.30;;;15.00;99.90;;;;;;6041393;23;20173;-83
2023/09/22 06:00:18;;;;;;;1.40;1.17;;;15.10;99.90;;;;;;6067607;23;20181;-84
2023/09/22 06:02:49;;;;;;;1.83;1.20;;;15.10;99.90;;;;;;6041653;23;20212;-83
2023/09/22 06:05:17;;;;;;;2.13;1.05;;;15.10;99.90;;;;;;6042497;23;20188;-84
2023/09/22 06:07:43;;;;;;;1.75;1.30;;;15.00;99.90;;;;;;6066859;23;20245;-84
2023/09/22 06:10:11;;;;;;;1.20;1.10;;;15.00;99.90;;;;;;6067638;23;20515;-84
2023/09/22 06:12:38;;;;;;;3.83;1.30;;;14.90;99.90;;;;;;6067825;23;20181;-84
2023/09/22 06:15:09;;;;;;;2.42;1.35;;;14.90;99.90;;;;;;6041142;23;20189;-84
2023/09/22 06:17:36;;;;;;;2.45;1.20;;;14.90;99.90;;;;;;6067474;23;20162;-84
2023/09/22 06:20:08;;;;;;;2.55;1.63;;;14.80;99.90;;;;;;6066727;23;20193;-84
2023/09/22 06:22:35;;;;;;;2.67;1.20;;;15.00;99.90;;;;;;6066902;23;20236;-84
2023/09/22 06:25:02;;;;;;;3.15;1.40;;;14.90;99.90;;;;;;6066581;23;20260;-84
2023/09/22 06:27:30;;;;;;;1.88;1.20;;;15.00;99.90;;;;;;6066797;23;20229;-84
2023/09/22 06:29:57;;;;;;;2.30;1.25;;;15.00;99.90;;;;;;6067201;23;20526;-84
2023/09/22 06:32:25;;;;;;;2.17;1.50;;;14.90;99.90;;;;;;6066931;23;20177;-84
2023/09/22 06:34:53;;;;;;;1.05;1.02;;;14.90;99.90;;;;;;6041528;23;20181;-84
2023/09/22 06:37:20;;;;;;;1.70;1.27;;;14.80;99.90;;;;;;6041131;23;20205;-84
2023/09/22 06:39:47;;;;;;;1.73;1.30;;;14.70;99.90;;;;;;6067683;23;20178;-84
2023/09/22 06:42:14;;;;;;;1.35;1.20;;;14.70;99.90;;;;;;6067464;23;20183;-84
2023/09/22 06:44:41;;;;;;;1.40;1.20;;;14.70;99.90;;;;;;6066449;23;20184;-84
2023/09/22 06:47:09;;;;;;;2.53;1.20;;;14.70;99.90;;;;;;6066293;23;20216;-84
2023/09/22 06:49:37;;;;;;;3.08;1.27;;;14.70;99.90;;;;;;6066739;23;20200;-84
2023/09/22 06:52:06;;;;;;;1.00;0.90;;;14.70;99.90;;;;;;6066702;23;20201;-84
2023/09/22 06:54:33;;;;;;;1.58;1.23;;;14.70;99.90;;;;;;6066529;23;20173;-84
2023/09/22 06:57:02;;;;;;;2.13;1.40;;;14.70;99.90;;;;;;6066695;23;20183;-84
2023/09/22 06:59:31;;;;;;;2.50;1.13;;;14.70;99.90;;;;;;6066668;23;20189;-84
2023/09/22 07:01:59;;;;;;;1.30;1.05;;;14.70;99.90;;;;;;6067064;23;20174;-84
2023/09/22 07:04:27;;;;;;;2.80;1.40;;;14.60;99.90;;;;;;6040761;23;20240;-84
2023/09/22 07:06:55;;;;;;;3.25;1.20;;;14.70;99.90;;;;;;6067304;23;20664;-84
2023/09/22 07:09:23;;;;;;;2.70;1.20;;;14.70;99.90;;;;;;6067456;23;20184;-85
2023/09/22 07:11:50;;;;;;;1.85;1.08;;;14.80;99.90;;;;;;6067435;23;20188;-84
2023/09/22 07:14:17;;;;;;;1.63;1.10;;;14.90;99.90;;;;;;6066699;23;20174;-84
2023/09/22 07:16:44;;;;;;;2.05;1.17;;;14.90;99.90;;;;;;6067077;23;20180;-84
2023/09/22 07:19:11;;;;;;;2.10;1.42;;;14.90;99.90;;;;;;5989387;23;20536;-84
2023/09/22 07:21:38;;;;;;;1.05;0.88;;;14.90;99.90;;;;;;6038435;23;20184;-84
2023/09/22 07:24:08;;;;;;;3.15;1.50;;;14.90;99.90;;;;;;6011796;23;20195;-84
2023/09/22 07:26:35;;;;;;;3.67;1.10;;;14.90;99.90;;;;;;6038386;23;20174;-84
2023/09/22 07:29:02;;;;;;;1.30;1.17;;;14.90;99.90;;;;;;6037831;23;20505;-84
2023/09/22 07:31:30;;;;;;;1.35;1.08;;;14.90;99.90;;;;;;6037772;23;21007;-84
2023/09/22 07:33:57;;;;;;;2.50;1.27;;;15.00;99.90;;;;;;6035947;23;20178;-84
2023/09/22 07:36:24;;;;;;;2.38;1.20;;;15.10;99.90;;;;;;6037747;23;20186;-84
2023/09/22 07:38:51;;;;;;;2.63;1.38;;;15.00;99.90;;;;;;6037630;23;20241;-84
2023/09/22 07:41:20;;;;;;;2.67;1.10;;;15.10;99.90;;;;;;6038449;23;20173;-84
2023/09/22 07:43:47;;;;;;;2.92;1.10;;;15.30;99.90;;;;;;6037284;23;20178;-84
2023/09/22 07:46:14;;;;;;;1.67;1.00;;;15.30;99.90;;;;;;6037327;23;20181;-84
2023/09/22 07:48:41;;;;;;;1.50;1.20;;;15.30;99.90;;;;;;6012364;23;20190;-84
2023/09/22 07:51:08;;;;;;;1.83;1.20;;;15.30;99.90;;;;;;6036392;23;20210;-85
2023/09/22 07:53:34;;;;;;;2.22;1.15;;;15.50;99.90;;;;;;6037560;23;20174;-84
2023/09/22 07:56:01;;;;;;;1.30;1.10;;;15.50;99.90;;;;;;6037138;23;20486;-84
2023/09/22 07:58:30;;;;;;;1.15;1.00;;;15.50;99.90;;;;;;6036258;23;20174;-84
2023/09/22 08:00:59;;;;;;;1.80;1.20;;;15.60;99.90;;;;;;6036151;23;20181;-84
2023/09/22 08:03:26;;;;;;;0.90;0.82;;;15.60;99.90;;;;;;6036467;23;20188;-84
2023/09/22 08:05:53;;;;;;;1.38;1.10;;;15.40;99.90;;;;;;6035888;23;20500;-84
2023/09/22 08:08:20;;;;;;;1.90;1.17;;;15.30;99.90;;;;;;6038217;23;20174;-84
2023/09/22 08:10:47;;;;;;;2.28;1.20;;;15.30;99.90;;;;;;6036994;23;20249;-84
2023/09/22 08:13:14;;;;;;;2.13;1.23;;;15.30;99.90;;;;;;6036343;23;20184;-84
2023/09/22 08:15:43;;;;;;;1.10;1.00;;;15.30;99.90;;;;;;6037446;23;20178;-84
2023/09/22 08:18:10;;;;;;;1.65;1.15;;;15.30;99.90;;;;;;6064568;23;20181;-84
2023/09/22 08:20:37;;;;;;;1.27;1.10;;;15.50;99.90;;;;;;6066930;23;20166;-85
2023/09/22 08:23:04;;;;;;;1.70;1.10;;;15.80;99.90;;;;;;6065674;23;20224;-84
2023/09/22 08:25:31;;;;;;;1.45;1.10;;;15.70;99.90;;;;;;6039993;23;20541;-84
2023/09/22 08:27:58;;;;;;;1.98;1.30;;;15.70;99.90;;;;;;6042241;23;20177;-84
2023/09/22 08:30:25;;;;;;;1.10;1.00;;;15.70;99.90;;;;;;6068907;23;20200;-84
2023/09/22 08:32:54;;;;;;;2.00;1.20;;;15.80;99.90;;;;;;6067835;23;20256;-83
2023/09/22 08:35:21;;;;;;;1.20;1.10;;;15.90;99.90;;;;;;6019295;23;20182;-84
2023/09/22 08:37:49;;;;;;;1.75;1.13;;;15.80;99.90;;;;;;6043172;23;20225;-84
2023/09/22 08:40:17;;;;;;;0.85;0.82;;;15.70;99.90;;;;;;6068589;23;20192;-84
2023/09/22 08:42:45;;;;;;;0.95;0.90;;;15.70;99.90;;;;;;6042596;23;21135;-84
2023/09/22 08:45:13;;;;;;;1.88;1.23;;;15.80;99.90;;;;;;6067592;23;20240;-84
2023/09/22 08:47:42;;;;;;;1.08;0.93;;;15.80;99.90;;;;;;6068349;23;20177;-84
2023/09/22 08:50:22;;;;;;;1.33;1.08;;;15.80;99.90;;;;;;6067939;23;20203;-84
2023/09/22 08:52:51;;;;;;;1.55;1.40;;;15.60;99.90;;;;;;6066289;23;20192;-84
2023/09/22 08:55:18;;;;;;;3.53;1.20;;;15.40;99.90;;;;;;6068259;23;20182;-84
2023/09/22 08:57:46;;;;;;;4.43;1.20;;;15.30;99.90;;;;;;6068370;23;20173;-84
2023/09/22 09:00:20;;;;;;;2.03;1.25;;;15.30;99.90;;;;;;6042947;23;20184;-84
2023/09/22 09:02:47;;;;;;;1.77;1.20;;;15.20;99.90;;;;;;6065257;23;20165;-84
2023/09/22 09:05:23;;;;;;;1.70;1.10;;;15.20;99.90;;;;;;6067682;23;20181;-84
2023/09/22 09:07:51;;;;;;;4.03;1.20;;;15.10;99.90;;;;;;6068263;23;20169;-85
2023/09/22 09:10:33;;;;;;;1.83;1.10;;;15.00;99.90;;;;;;6042775;23;20574;-84
2023/09/22 09:13:03;;;;;;;3.20;1.30;;;15.00;99.90;;;;;;6068165;23;20161;-84
2023/09/22 09:15:31;;;;;;;1.92;1.33;;;15.10;99.90;;;;;;6068230;23;20212;-84
2023/09/22 09:18:04;;;;;;;2.50;1.50;;;15.10;99.90;;;;;;6068184;23;20629;-84
2023/09/22 09:20:33;;;;;;;2.42;1.42;;;15.20;99.90;;;;;;6042521;23;20527;-84
2023/09/22 09:23:10;;;;;;;3.38;1.27;;;15.10;99.90;;;;;;6067508;23;20177;-84
2023/09/22 09:25:41;;;;;;;1.30;1.20;;;15.20;99.90;;;;;;6067773;23;20170;-84
2023/09/22 09:28:08;;;;;;;2.65;1.30;;;15.10;99.90;;;;;;6067917;23;20173;-84
2023/09/22 09:30:35;;;;;;;2.92;1.42;;;15.10;99.90;;;;;;6067644;23;20197;-84
2023/09/22 09:33:10;;;;;;;2.33;1.20;;;15.10;99.90;;;;;;6067082;23;20243;-84
2023/09/22 09:35:39;;;;;;;2.03;1.40;;;15.30;99.90;;;;;;6067810;23;20539;-84
2023/09/22 09:38:08;;;;;;;2.58;1.35;;;15.50;99.90;;;;;;6044002;23;20304;-84
2023/09/22 09:40:37;;;;;;;2.45;1.45;;;15.40;99.90;;;;;;6042439;23;20676;-84
2023/09/22 09:43:10;;;;;;;4.05;1.67;;;15.40;99.90;;;;;;6067225;23;20233;-84
2023/09/22 09:45:43;;;;;;;3.83;1.30;;;15.50;99.90;;;;;;6067275;23;20173;-84
2023/09/22 09:48:14;;;;;;;2.17;1.35;;;15.50;99.90;;;;;;6067287;23;20169;-84
2023/09/22 09:50:44;;;;;;;1.30;1.20;;;15.60;99.90;;;;;;6067448;23;20208;-84
2023/09/22 09:53:21;;;;;;;2.00;1.20;;;15.60;99.90;;;;;;6067371;23;20180;-84
2023/09/22 09:55:52;;;;;;;1.58;1.25;;;15.50;99.90;;;;;;6067155;23;20187;-84
2023/09/22 09:58:21;;;;;;;1.38;1.10;;;15.50;99.90;;;;;;6068108;23;20555;-84
2023/09/22 10:00:49;;;;;;;3.75;1.63;;;15.40;99.90;;;;;;6067762;23;20177;-84
2023/09/22 10:03:17;;;;;;;3.13;1.50;;;15.20;99.90;;;;;;6067156;23;20260;-83
2023/09/22 10:05:46;;;;;;;1.67;1.20;;;15.30;99.90;;;;;;6066727;23;20887;-84
2023/09/22 10:08:13;;;;;;;2.17;1.25;;;15.20;99.90;;;;;;6067060;23;20181;-84
2023/09/22 10:10:41;;;;;;;1.70;1.38;;;15.10;99.90;;;;;;6067053;23;20237;-84
2023/09/22 10:13:08;;;;;;;2.85;1.30;;;15.10;99.90;;;;;;6061741;23;20475;-84
2023/09/22 10:15:55;;;;;;;1.75;1.15;;;15.00;99.90;;;;;;6066160;23;20196;-84
2023/09/22 10:18:24;;;;;;;2.00;1.33;;;15.00;99.90;;;;;;6066591;23;20181;-84
2023/09/22 10:20:53;;;;;;;1.17;0.88;;;15.10;99.90;;;;;;6066879;23;20185;-84
2023/09/22 10:23:23;;;;;;;2.30;1.30;;;15.10;99.90;;;;;;6065965;23;20188;-84
2023/09/22 10:26:23;;;;;;;1.20;1.10;;;15.20;99.90;;;;;;6066265;23;20170;-84
2023/09/22 10:28:50;;;;;;;1.35;1.25;;;15.20;99.90;;;;;;5983606;23;20238;-84
2023/09/22 10:31:17;;;;;;;1.75;1.13;;;15.30;99.90;;;;;;6006941;23;20199;-84
2023/09/22 10:33:46;;;;;;;2.45;1.23;;;15.30;99.90;;;;;;6034365;23;20177;-84
2023/09/22 10:36:47;;;;;;;1.52;1.20;;;15.20;99.90;;;;;;6068101;23;20260;-84
2023/09/22 10:39:14;;;;;;;3.20;1.50;;;15.10;99.90;;;;;;6067016;23;20177;-89
2023/09/22 10:42:00;;;;;;;2.30;1.10;;;15.10;99.90;;;;;;6068269;23;20507;-85
2023/09/22 10:44:27;;;;;;;4.15;1.52;;;15.30;99.90;;;;;;6067107;23;20165;-85
2023/09/22 10:46:58;;;;;;;1.17;1.08;;;15.40;99.90;;;;;;6041900;23;20652;-86
2023/09/22 10:49:28;;;;;;;2.67;1.50;;;15.30;99.40;;;;;;6041870;23;20181;-87
2023/09/22 10:51:57;;;;;;;1.20;1.10;;;15.20;99.30;;;;;;6066702;23;20233;-85
2023/09/22 10:54:24;;;;;;;1.55;1.30;;;15.10;99.40;;;;;;6066711;23;20181;-86
2023/09/22 10:56:51;;;;;;;1.85;1.23;;;14.90;99.50;;;;;;6041712;23;20181;-86
2023/09/22 10:59:18;;;;;;;1.77;1.30;;;14.70;99.90;;;;;;6041817;23;20177;-86
2023/09/22 11:01:46;;;;;;;2.55;1.10;;;14.50;99.90;;;;;;6040961;23;20185;-84
2023/09/22 11:04:13;;;;;;;2.15;1.70;;;14.50;99.90;;;;;;6040452;23;20177;-86
2023/09/22 11:06:44;;;;;;;2.13;1.40;;;14.50;99.90;;;;;;6042083;23;20177;-84
2023/09/22 11:09:14;;;;;;;2.33;1.30;;;14.60;99.90;;;;;;6067098;23;20161;-84
2023/09/22 11:11:45;;;;;;;1.95;1.20;;;14.60;99.90;;;;;;6067142;23;20189;-87
2023/09/22 11:14:12;;;;;;;1.67;1.25;;;14.60;99.90;;;;;;6066052;23;20249;-87
2023/09/22 11:16:39;;;;;;;1.55;1.42;;;14.50;99.90;;;;;;6066088;23;20173;-83
2023/09/22 11:19:06;;;;;;;1.77;1.20;;;14.50;99.90;;;;;;6066138;23;20182;-87
2023/09/22 11:21:39;;;;;;;1.80;1.33;;;14.80;99.90;;;;;;6066938;23;20174;-87
2023/09/22 11:24:06;;;;;;;1.58;1.33;;;14.80;99.90;;;;;;6066174;23;20249;-84
2023/09/22 11:26:42;;;;;;;2.88;1.48;;;14.90;99.90;;;;;;6067073;23;20180;-87
2023/09/22 11:29:09;;;;;;;3.08;1.50;;;14.90;99.90;;;;;;6066254;23;20177;-84
2023/09/22 11:31:48;;;;;;;2.00;1.38;;;14.90;99.90;;;;;;6065084;23;20232;-85
2023/09/22 11:34:15;;;;;;;2.55;1.50;;;14.90;99.90;;;;;;6040436;23;20252;-86
2023/09/22 11:36:48;;;;;;;1.90;1.27;;;14.90;99.90;;;;;;6066175;23;20708;-87
2023/09/22 11:39:25;;;;;;;1.67;1.30;;;15.00;99.90;;;;;;6066279;23;20173;-87
2023/09/22 11:41:53;;;;;;;1.50;1.25;;;15.10;99.90;;;;;;6064915;23;20229;-84
2023/09/22 11:44:20;;;;;;;1.80;1.60;;;15.10;99.80;;;;;;6041005;23;20241;-86
2023/09/22 11:46:48;;;;;;;1.42;1.00;;;15.10;99.80;;;;;;6066624;23;20203;-86
2023/09/22 11:49:15;;;;;;;2.60;1.13;;;15.00;99.90;;;;;;6066659;23;20207;-87
2023/09/22 11:51:48;;;;;;;3.80;1.20;;;14.90;99.90;;;;;;6066248;23;20648;-86
2023/09/22 11:54:16;;;;;;;2.00;1.20;;;14.80;99.90;;;;;;6064683;23;20177;-88
2023/09/22 11:56:43;;;;;;;2.85;1.30;;;14.80;99.90;;;;;;6064340;23;20169;-85
2023/09/22 11:59:14;;;;;;;1.48;1.10;;;14.80;99.90;;;;;;6038869;23;20585;-85
2023/09/22 12:01:42;;;;;;;2.85;1.20;;;14.80;99.90;;;;;;6063503;23;20696;-84
2023/09/22 12:04:10;;;;;;;3.10;1.10;;;14.80;99.90;;;;;;6063966;23;20268;-85
2023/09/22 12:06:40;;;;;;;2.10;1.27;;;14.90;99.90;;;;;;6065960;23;20173;-85
2023/09/22 12:09:08;;;;;;;1.95;1.30;;;15.00;99.90;;;;;;6065034;23;20162;-85
2023/09/22 12:11:35;;;;;;;1.10;1.00;;;14.90;99.90;;;;;;6040624;23;20280;-85
2023/09/22 12:14:03;;;;;;;1.48;1.38;;;14.80;99.90;;;;;;6039657;23;20706;-86
2023/09/22 12:16:32;;;;;;;1.30;1.00;;;14.80;99.90;;;;;;6040467;23;20944;-87
2023/09/22 12:18:59;;;;;;;1.27;1.10;;;14.80;99.90;;;;;;6065379;23;20188;-87
2023/09/22 12:21:28;;;;;;;1.15;0.90;;;14.70;99.90;;;;;;6040291;23;20184;-87
2023/09/22 12:23:55;;;;;;;1.27;1.17;;;14.60;99.90;;;;;;6039214;23;20265;-87
2023/09/22 12:26:23;;;;;;;2.90;1.20;;;14.50;99.90;;;;;;6065356;23;20290;-84
2023/09/22 12:28:50;;;;;;;1.35;0.90;;;14.60;99.90;;;;;;6040948;23;20173;-89
2023/09/22 12:31:18;;;;;;;1.80;1.10;;;14.70;99.90;;;;;;6065842;23;20976;-91
2023/09/22 12:33:49;;;;;;;1.42;1.08;;;14.80;99.90;;;;;;6066399;23;20550;-87
2023/09/22 12:36:16;;;;;;;2.22;1.10;;;14.90;99.90;;;;;;6066891;23;20176;-85
2023/09/22 12:38:44;;;;;;;1.75;1.00;;;14.90;99.90;;;;;;6064366;23;20187;-86
2023/09/22 12:41:12;;;;;;;2.20;1.05;;;15.00;99.90;;;;;;6040360;23;20199;-88
2023/09/22 12:43:39;;;;;;;1.20;1.10;;;15.00;99.90;;;;;;6065585;23;20177;-83
2023/09/22 12:46:11;;;;;;;1.10;1.00;;;15.00;99.90;;;;;;6063858;23;20178;-85
2023/09/22 12:48:40;;;;;;;1.77;1.20;;;15.10;99.90;;;;;;6065490;23;20181;-86
2023/09/22 12:51:10;;;;;;;1.17;1.02;;;15.10;99.90;;;;;;6064251;23;20202;-87
2023/09/22 12:53:37;;;;;;;1.45;1.00;;;15.10;99.50;;;;;;6064771;23;20165;-87